| ID | Date Time (PST) |
Wind Direction |
Min Wind Speed (m/s) |
Ave Wind Speed (m/s) |
Max Wind Speed (m/s) |
Sigma Theta |
Temp (C) |
Temp (F) |
Relative Humidity (%) |
Pressure (hPa) |
Solar Rad (W/m^2) |
Precipitation (in.) |
Battery (V) |
DT/Dz (C/m) |
Stability |
| A26AB | 2026-09-01 18:45:00 | 215 | 4.2 | 7.2 | 11 | 10.6 | 24.7 | 76 | 10 | 867.4 | 0 | 0 | 12.4 | 0.062 | |
| A26AB | 2026-09-01 18:30:00 | 208 | 4.7 | 7.8 | 12.5 | 9.7 | 24.9 | 76 | 10 | 867.4 | 0 | 0 | 12.4 | 0.047 | |
| A26AB | 2026-09-01 18:15:00 | 209 | 3 | 8.4 | 12.9 | 10.1 | 25.2 | 77 | 10 | 867.5 | 3 | 0 | 12.42 | 0.044 | |
| A26AB | 2026-09-01 18:00:00 | 210 | 3.7 | 7.2 | 11.7 | 10.9 | 25.5 | 78 | 10 | 867.6 | 27.9 | 0 | 12.44 | 0.034 | |
| A26AB | 2026-09-01 17:45:00 | 209 | 5.5 | 9.3 | 14.4 | 9.2 | 26 | 78 | 9 | 867.6 | 75.9 | 0 | 12.47 | 0.005 | |
| A26AB | 2026-09-01 17:30:00 | 214 | 5.5 | 9.6 | 15.1 | 9.2 | 26.4 | 79 | 9 | 867.6 | 123.7 | 0 | 12.49 | -0.013 | |
| A26AB | 2026-09-01 17:15:00 | 213 | 4.3 | 9 | 13.7 | 10.7 | 26.6 | 80 | 9 | 867.6 | 176.1 | 0 | 12.51 | -0.031 | |
| A26AB | 2026-09-01 17:00:00 | 220 | 5.7 | 10.7 | 16.4 | 8.8 | 27 | 80 | 9 | 867.6 | 232.4 | 0 | 12.53 | -0.051 | |
| A26AB | 2026-09-01 16:45:00 | 210 | 5 | 9.5 | 15 | 13.2 | 27.1 | 80 | 9 | 867.7 | 289.1 | 0 | 12.55 | -0.069 | |
| A26AB | 2026-09-01 16:30:00 | 213 | 5.3 | 10 | 15.5 | 9.2 | 27.6 | 81 | 9 | 867.7 | 347.4 | 0 | 12.57 | -0.081 | |
| A26AB | 2026-09-01 16:15:00 | 212 | 5.7 | 9.8 | 15.7 | 10.6 | 27.7 | 81 | 9 | 867.8 | 406 | 0 | 12.58 | -0.109 | |
| A26AB | 2026-09-01 16:00:00 | 199 | 4.3 | 8.3 | 15.1 | 10.3 | 27.9 | 82 | 9 | 867.9 | 463 | 0 | 12.62 | -0.118 | |
| A26AB | 2026-09-01 15:45:00 | 206 | 4.1 | 8.1 | 15.3 | 12.5 | 27.9 | 82 | 9 | 868 | 520 | 0 | 12.72 | -0.134 | |
| A26AB | 2026-09-01 15:30:00 | 205 | 2.7 | 7.6 | 12.5 | 16.5 | 27.9 | 82 | 9 | 868.1 | 572.8 | 0 | 13.11 | -0.144 | |
| A26AB | 2026-09-01 15:15:00 | 205 | 2.1 | 8.4 | 16.5 | 11.7 | 28 | 82 | 9 | 868.1 | 625.2 | 0 | 13.39 | -0.143 | |
| A26AB | 2026-09-01 15:00:00 | 200 | 3.7 | 8.5 | 16.3 | 12.7 | 28.2 | 82 | 9 | 868.2 | 672.5 | 0 | 13.39 | -0.168 | |
| A26AB | 2026-09-01 14:45:00 | 196 | 3.3 | 8 | 15.3 | 12.5 | 28 | 82 | 9 | 868.2 | 709.8 | 0 | 13.39 | -0.17 | |
| A26AB | 2026-09-01 14:30:00 | 203 | 3.3 | 9.1 | 15.2 | 11.4 | 28.1 | 82 | 9 | 868.2 | 762.5 | 0 | 13.39 | -0.188 | |
| A26AB | 2026-09-01 14:15:00 | 215 | 3.8 | 8.6 | 14.6 | 12.6 | 28.1 | 82 | 10 | 868.3 | 803.8 | 0 | 13.39 | -0.19 | |
| A26AB | 2026-09-01 14:00:00 | 204 | 2.5 | 8.3 | 13.6 | 10.1 | 28 | 82 | 9 | 868.6 | 842.5 | 0 | 13.39 | -0.215 | |
| A26AB | 2026-09-01 13:45:00 | 195 | 4.2 | 8.8 | 14.6 | 13.9 | 28 | 82 | 10 | 868.7 | 874.1 | 0 | 13.39 | -0.211 | |
| A26AB | 2026-09-01 13:30:00 | 208 | 2.1 | 8.6 | 14.3 | 11.9 | 28.1 | 82 | 10 | 868.8 | 905.6 | 0 | 13.39 | -0.192 | |
| A26AB | 2026-09-01 13:15:00 | 208 | 2.9 | 7.4 | 13.5 | 11.4 | 27.8 | 82 | 10 | 869 | 932.6 | 0 | 13.39 | -0.173 | |
| A26AB | 2026-09-01 13:00:00 | 204 | 2.3 | 7.4 | 14.8 | 16.3 | 28.2 | 82 | 10 | 869.2 | 952.7 | 0 | 13.4 | -0.188 | |
| A26AB | 2026-09-01 12:45:00 | 193 | 2.5 | 6.6 | 11.5 | 18.1 | 27.7 | 81 | 11 | 869.4 | 967.3 | 0 | 13.42 | -0.218 | |
| A26AB | 2026-09-01 12:30:00 | 192 | 3.6 | 7.6 | 15.1 | 15.1 | 27.3 | 81 | 11 | 869.5 | 982.3 | 0 | 13.42 | -0.217 | |
| A26AB | 2026-09-01 12:15:00 | 197 | 4.1 | 8.5 | 13.4 | 12.9 | 27.1 | 80 | 12 | 869.6 | 993.9 | 0 | 13.42 | -0.223 | |
| A26AB | 2026-09-01 12:00:00 | 217 | 4.2 | 8.2 | 13.2 | 12 | 27.2 | 81 | 12 | 869.8 | 998.6 | 0 | 13.42 | -0.217 | |
| A26AB | 2026-09-01 11:45:00 | 217 | 3.8 | 8.1 | 16.8 | 12.4 | 27.1 | 80 | 12 | 870 | 999.8 | 0 | 13.42 | -0.201 | |
| A26AB | 2026-09-01 11:30:00 | 205 | 3.8 | 8.3 | 14.5 | 15 | 26.7 | 80 | 12 | 870.2 | 997.3 | 0 | 13.42 | -0.19 | |
| A26AB | 2026-09-01 11:15:00 | 203 | 2.5 | 8.2 | 14.7 | 10.2 | 26.9 | 80 | 11 | 870.4 | 990 | 0 | 13.42 | -0.219 | |
| A26AB | 2026-09-01 11:00:00 | 199 | 3.1 | 7 | 13.7 | 11.4 | 26.5 | 79 | 11 | 870.6 | 976 | 0 | 13.42 | -0.193 | |
| A26AB | 2026-09-01 10:45:00 | 217 | 2.7 | 7.8 | 14.6 | 12.6 | 26.1 | 79 | 11 | 870.7 | 961 | 0 | 13.41 | -0.198 | |
| A26AB | 2026-09-01 10:30:00 | 220 | 4.2 | 9.4 | 15.8 | 8.9 | 25.9 | 78 | 11 | 870.7 | 943.1 | 0 | 13.4 | -0.184 | |
| A26AB | 2026-09-01 10:15:00 | 226 | 4.4 | 9.3 | 14.4 | 9 | 26 | 78 | 10 | 870.8 | 919.1 | 0 | 13.4 | -0.193 | |
| A26AB | 2026-09-01 10:00:00 | 209 | 3.2 | 6.6 | 11.8 | 15 | 25.9 | 78 | 10 | 870.9 | 887.9 | 0 | 13.42 | -0.182 | |
| A26AB | 2026-09-01 09:45:00 | 205 | 3.3 | 6.9 | 11.7 | 14.5 | 25.3 | 77 | 11 | 870.8 | 857.2 | 0 | 13.42 | -0.184 | |
| A26AB | 2026-09-01 09:30:00 | 195 | 4.3 | 8.1 | 13.7 | 11.6 | 25 | 77 | 11 | 870.6 | 823.9 | 0 | 13.42 | -0.165 | |
| A26AB | 2026-09-01 09:15:00 | 196 | 3.7 | 7.6 | 12.8 | 9.5 | 25 | 77 | 11 | 870.5 | 783.2 | 0 | 13.42 | -0.184 | |
| A26AB | 2026-09-01 09:00:00 | 193 | 3.6 | 7.1 | 12.3 | 12.1 | 24.9 | 76 | 11 | 870.4 | 741.4 | 0 | 13.42 | -0.159 | |
| A26AB | 2026-09-01 08:45:00 | 191 | 3 | 7.1 | 11.8 | 12.2 | 24.4 | 76 | 11 | 870.3 | 696.6 | 0 | 13.43 | -0.143 | |
| A26AB | 2026-09-01 08:30:00 | 190 | 3.6 | 7.5 | 12.5 | 10.8 | 24.1 | 75 | 11 | 870.3 | 648.8 | 0 | 13.43 | -0.147 | |
| A26AB | 2026-09-01 08:15:00 | 201 | 4.5 | 8.9 | 14.6 | 11.4 | 23.7 | 74 | 11 | 870.2 | 602.3 | 0 | 13.46 | -0.131 | |
| A26AB | 2026-09-01 08:00:00 | 187 | 3.1 | 8.5 | 14.9 | 8.7 | 23.3 | 74 | 11 | 870.1 | 550.8 | 0 | 13.46 | -0.116 | |
| A26AB | 2026-09-01 07:45:00 | 181 | 5.1 | 8.6 | 12 | 9 | 23.1 | 73 | 12 | 870.1 | 493.5 | 0 | 13.46 | -0.11 | |
| A26AB | 2026-09-01 07:30:00 | 182 | 4.2 | 7.7 | 11.5 | 10.3 | 22.9 | 73 | 12 | 870.1 | 434.1 | 0 | 13.46 | -0.097 | |
| A26AB | 2026-09-01 07:15:00 | 177 | 3.7 | 6.3 | 9.9 | 12.8 | 22.5 | 72 | 13 | 870 | 374.9 | 0 | 13.47 | -0.085 | |
| A26AB | 2026-09-01 07:00:00 | 178 | 4.1 | 7.1 | 11.8 | 11.7 | 22.3 | 72 | 13 | 869.9 | 317.9 | 0 | 13.48 | -0.071 | |
| A26AB | 2026-09-01 06:45:00 | 185 | 3.7 | 7.5 | 10.2 | 9 | 22.2 | 71 | 13 | 869.9 | 259.2 | 0 | 13.5 | -0.044 | |
| A26AB | 2026-09-01 06:30:00 | 190 | 3 | 5.4 | 9.4 | 12.4 | 22 | 71 | 12 | 869.8 | 203 | 0 | 13.41 | -0.022 | |
| A26AB | 2026-09-01 06:15:00 | 198 | 2.6 | 5.6 | 8.8 | 11.2 | 21.8 | 71 | 13 | 869.8 | 148.5 | 0 | 13.26 | -0.004 | |
| A26AB | 2026-09-01 06:00:00 | 213 | 2.7 | 6 | 10.5 | 11.7 | 21.5 | 70 | 13 | 869.8 | 95.9 | 0 | 13.01 | 0.023 | |
| A26AB | 2026-09-01 05:45:00 | 201 | 2.1 | 6 | 9.3 | 12.4 | 21.2 | 70 | 12 | 869.6 | 49.7 | 0 | 12.6 | 0.042 | |
| A26AB | 2026-09-01 05:30:00 | 213 | 4.2 | 8 | 11.2 | 7.8 | 21 | 69 | 13 | 869.4 | 12.3 | 0 | 12.23 | 0.061 | |
| A26AB | 2026-09-01 05:15:00 | 204 | 1.6 | 6.2 | 12 | 12.1 | 20.3 | 68 | 13 | 869.3 | 0 | 0 | 12.15 | 0.097 | |
| A26AB | 2026-09-01 05:00:00 | 194 | 1.7 | 4.1 | 7.9 | 10.1 | 19.7 | 67 | 14 | 869.2 | 0 | 0 | 12.15 | 0.101 | |
| A26AB | 2026-09-01 04:45:00 | 189 | 3.1 | 6.3 | 10.5 | 11 | 20.3 | 68 | 14 | 869.1 | 0 | 0 | 12.16 | 0.062 | |
| A26AB | 2026-09-01 04:30:00 | 193 | 2.4 | 6.3 | 13.2 | 13.5 | 20.4 | 68 | 14 | 869 | 0 | 0 | 12.16 | 0.067 | |
| A26AB | 2026-09-01 04:15:00 | 194 | 0.6 | 3.9 | 10.1 | 23.5 | 20.5 | 68 | 14 | 869.1 | 0 | 0 | 12.16 | 0.055 | |
| A26AB | 2026-09-01 04:00:00 | 157 | 0.3 | 3 | 8.6 | 21.8 | 20.3 | 68 | 15 | 869.1 | 0 | 0 | 12.17 | 0.064 | |
| A26AB | 2026-09-01 03:45:00 | 176 | 1.8 | 5.8 | 11.8 | 15.8 | 20.8 | 69 | 14 | 869 | 0 | 0 | 12.18 | 0.055 | |
| A26AB | 2026-09-01 03:30:00 | 186 | 5.9 | 9.4 | 13.4 | 7.6 | 21.3 | 70 | 13 | 868.6 | 0 | 0 | 12.19 | 0.057 | |
| A26AB | 2026-09-01 03:15:00 | 181 | 5.2 | 8.7 | 13.5 | 7.9 | 20.9 | 69 | 14 | 868.5 | 0 | 0 | 12.2 | 0.049 | |
| A26AB | 2026-09-01 03:00:00 | 194 | 5.7 | 9.6 | 14.2 | 6.9 | 21.6 | 70 | 12 | 868.4 | 0 | 0 | 12.21 | 0.044 | |
| A26AB | 2026-09-01 02:45:00 | 193 | 6.8 | 11.8 | 16.6 | 5.9 | 22.1 | 71 | 12 | 868.2 | 0 | 0 | 12.22 | 0.046 | |
| A26AB | 2026-09-01 02:30:00 | 190 | 5.6 | 9.8 | 14.4 | 6.6 | 22 | 71 | 12 | 868.3 | 0 | 0 | 12.22 | 0.05 | |
| A26AB | 2026-09-01 02:15:00 | 192 | 6.1 | 9.3 | 14.1 | 6.4 | 22.1 | 71 | 12 | 868.4 | 0 | 0 | 12.23 | 0.047 | |
| A26AB | 2026-09-01 02:00:00 | 197 | 4.8 | 8.8 | 12.4 | 8.9 | 22.2 | 72 | 11 | 868.5 | 0 | 0 | 12.23 | 0.049 | |
| A26AB | 2026-09-01 01:45:00 | 196 | 4.9 | 9.3 | 14.7 | 8.5 | 22.4 | 72 | 12 | 868.6 | 0 | 0 | 12.24 | 0.043 | |
| A26AB | 2026-09-01 01:30:00 | 196 | 4.3 | 9 | 13.8 | 7.6 | 22.6 | 72 | 13 | 868.5 | 0 | 0 | 12.25 | 0.048 | |
| A26AB | 2026-09-01 01:15:00 | 203 | 5.7 | 10 | 13.7 | 8.1 | 22.6 | 72 | 13 | 868.4 | 0 | 0 | 12.26 | 0.052 | |
| A26AB | 2026-09-01 01:00:00 | 194 | 6.9 | 10.8 | 15.6 | 6.4 | 22.9 | 73 | 13 | 868.4 | 0 | 0 | 12.26 | 0.047 | |
| A26AB | 2026-09-01 00:45:00 | 199 | 6.9 | 11 | 15.7 | 7.2 | 23.3 | 73 | 14 | 868.2 | 0 | 0 | 12.27 | 0.047 | |
| A26AB | 2026-09-01 00:30:00 | 195 | 3.3 | 7.8 | 12.4 | 8.9 | 23.4 | 74 | 14 | 868.5 | 0 | 0 | 12.28 | 0.051 | |
| A26AB | 2026-09-01 00:15:00 | 202 | 2.7 | 6.5 | 9.9 | 11 | 23.5 | 74 | 14 | 868.6 | 0 | 0 | 12.28 | 0.057 | |
| A26AB | 2026-09-01 00:00:00 | 195 | 5.2 | 9.1 | 13.3 | 8.1 | 23.8 | 74 | 14 | 868.6 | 0 | 0 | 12.29 | 0.054 | |
| A26AB | 2026-08-31 23:45:00 | 192 | 3.6 | 8 | 12.9 | 8.7 | 24 | 75 | 15 | 868.6 | 0 | 0 | 12.3 | 0.07 | |
| A26AB | 2026-08-31 23:30:00 | 192 | 3.7 | 6.7 | 11.4 | 7.9 | 24.2 | 75 | 15 | 868.6 | 0 | 0 | 12.3 | 0.062 | |
| A26AB | 2026-08-31 23:15:00 | 196 | 3 | 6.5 | 10 | 9.2 | 24.2 | 75 | 15 | 868.5 | 0 | 0 | 12.31 | 0.072 | |
| A26AB | 2026-08-31 23:00:00 | 198 | 3.7 | 6.9 | 10.3 | 8.6 | 24.3 | 75 | 15 | 868.4 | 0 | 0 | 12.32 | 0.085 | |
| A26AB | 2026-08-31 22:45:00 | 206 | 4.2 | 6.4 | 8.6 | 6.5 | 24.2 | 75 | 15 | 868.4 | 0 | 0 | 12.33 | 0.079 | |
| A26AB | 2026-08-31 22:30:00 | 207 | 4.3 | 7.2 | 10.9 | 6.4 | 24.3 | 75 | 15 | 868.4 | 0 | 0 | 12.33 | 0.063 | |
| A26AB | 2026-08-31 22:15:00 | 205 | 4.7 | 7.9 | 10.5 | 6 | 24.2 | 75 | 14 | 868.4 | 0 | 0 | 12.33 | 0.066 | |
| A26AB | 2026-08-31 22:00:00 | 209 | 4 | 6 | 8.2 | 5.6 | 23.9 | 75 | 15 | 868.3 | 0 | 0 | 12.34 | 0.1 | |
| A26AB | 2026-08-31 21:45:00 | 218 | 2.8 | 4.6 | 6.9 | 6.8 | 22.6 | 72 | 17 | 868.4 | 0 | 0 | 12.35 | 0.166 | |
| A26AB | 2026-08-31 21:30:00 | 244 | 3 | 4.5 | 5.4 | 4.8 | 22.3 | 72 | 16 | 868.5 | 0 | 0 | 12.36 | 0.218 | |
| A26AB | 2026-08-31 21:15:00 | 252 | 3.3 | 4.3 | 5.3 | 4.8 | 22.4 | 72 | 16 | 868.4 | 0 | 0 | 12.36 | 0.261 | |
| A26AB | 2026-08-31 21:00:00 | 245 | 2.7 | 3.9 | 5.2 | 3.8 | 22.6 | 72 | 15 | 868.4 | 0 | 0 | 12.37 | 0.223 | |
| A26AB | 2026-08-31 20:45:00 | 253 | 2.8 | 4 | 5.1 | 5.5 | 23.2 | 73 | 15 | 868.2 | 0 | 0 | 12.37 | 0.257 | |
| A26AB | 2026-08-31 20:30:00 | 263 | 3.7 | 4.2 | 4.8 | 3.7 | 23.3 | 73 | 14 | 868.1 | 0 | 0 | 12.37 | 0.284 | |
| A26AB | 2026-08-31 20:15:00 | 265 | 2.9 | 3.9 | 4.6 | 4.8 | 23.3 | 73 | 15 | 867.9 | 0 | 0 | 12.39 | 0.288 | |
| A26AB | 2026-08-31 20:00:00 | 240 | 2 | 3 | 3.6 | 8 | 23.3 | 73 | 15 | 867.7 | 0 | 0 | 12.39 | 0.273 | |
| A26AB | 2026-08-31 19:45:00 | 235 | 2.6 | 3.6 | 6.6 | 6.8 | 23.7 | 74 | 15 | 867.6 | 0 | 0 | 12.4 | 0.23 | |
| A26AB | 2026-08-31 19:30:00 | 243 | 2.7 | 3.5 | 4.3 | 5.5 | 24.2 | 75 | 14 | 867.4 | 0 | 0 | 12.39 | 0.281 | |
| A26AB | 2026-08-31 19:15:00 | 236 | 2.2 | 3.6 | 5.3 | 5.9 | 24.8 | 76 | 14 | 867.4 | 0 | 0 | 12.4 | 0.181 | |
| A26AB | 2026-08-31 19:00:00 | 231 | 3 | 4 | 5.4 | 5.2 | 25.9 | 78 | 15 | 867.2 | 0 | 0 | 12.4 | 0.117 | |